createdAt,value
2022-08-27T00:00:17.061Z,100.00
2022-08-27T00:02:44.218Z,100.00
2022-08-27T00:05:12.567Z,100.00
2022-08-27T00:07:40.641Z,100.00
2022-08-27T00:10:10.876Z,100.00
2022-08-27T00:12:38.011Z,100.00
2022-08-27T00:15:06.929Z,100.00
2022-08-27T00:17:35.259Z,100.00
2022-08-27T00:20:02.727Z,100.00
2022-08-27T00:22:29.408Z,100.00
2022-08-27T00:24:55.991Z,100.00
2022-08-27T00:27:22.686Z,100.00
2022-08-27T00:29:49.670Z,100.00
2022-08-27T00:32:17.158Z,100.00
2022-08-27T00:34:43.854Z,100.00
2022-08-27T00:37:10.968Z,100.00
2022-08-27T00:39:37.558Z,100.00
2022-08-27T00:42:05.862Z,100.00
2022-08-27T00:44:32.696Z,100.00
2022-08-27T00:47:04.189Z,100.00
2022-08-27T00:49:46.947Z,100.00
2022-08-27T00:52:25.739Z,100.00
2022-08-27T00:54:56.954Z,100.00
2022-08-27T00:57:24.039Z,100.00
2022-08-27T00:59:50.885Z,100.00
2022-08-27T01:02:20.199Z,100.00
2022-08-27T01:05:01.433Z,100.00
2022-08-27T01:07:31.949Z,100.00
2022-08-27T01:10:01.116Z,100.00
2022-08-27T01:12:30.428Z,100.00
2022-08-27T01:14:57.444Z,100.00
2022-08-27T01:17:24.960Z,100.00
2022-08-27T01:19:56.842Z,100.00
2022-08-27T01:23:01.024Z,100.00
2022-08-27T01:25:29.215Z,100.00
2022-08-27T01:28:00.590Z,100.00
2022-08-27T01:30:27.826Z,100.00
2022-08-27T01:32:55.762Z,100.00
2022-08-27T01:35:23.640Z,100.00
2022-08-27T01:37:53.709Z,100.00
2022-08-27T01:40:24.044Z,100.00
2022-08-27T01:42:55.661Z,100.00
2022-08-27T01:45:26.191Z,100.00
2022-08-27T01:47:53.252Z,100.00
2022-08-27T01:50:24.460Z,100.00
2022-08-27T01:52:52.087Z,100.00
2022-08-27T01:55:22.712Z,100.00
2022-08-27T01:57:49.720Z,100.00
2022-08-27T02:00:23.748Z,100.00
2022-08-27T02:02:50.810Z,100.00
2022-08-27T02:05:18.303Z,100.00
2022-08-27T02:07:45.488Z,100.00
2022-08-27T02:10:17.560Z,100.00
2022-08-27T02:12:44.237Z,100.00
2022-08-27T02:15:12.246Z,100.00
2022-08-27T02:17:38.898Z,100.00
2022-08-27T02:20:09.291Z,100.00
2022-08-27T02:22:35.948Z,100.00
2022-08-27T02:25:02.664Z,100.00
2022-08-27T02:27:29.463Z,100.00
2022-08-27T02:29:56.103Z,100.00
2022-08-27T02:32:31.887Z,100.00
2022-08-27T02:34:59.404Z,100.00
2022-08-27T02:37:26.962Z,100.00
2022-08-27T02:39:54.340Z,100.00
2022-08-27T02:42:21.060Z,100.00
2022-08-27T02:44:48.038Z,100.00
2022-08-27T02:47:15.463Z,100.00
2022-08-27T02:49:42.499Z,100.00
2022-08-27T02:52:09.248Z,100.00
2022-08-27T02:54:35.837Z,100.00
2022-08-27T02:57:02.478Z,100.00
2022-08-27T02:59:29.096Z,100.00
2022-08-27T03:01:55.900Z,100.00
2022-08-27T03:04:23.849Z,100.00
2022-08-27T03:06:50.571Z,100.00
2022-08-27T03:09:17.184Z,100.00
2022-08-27T03:11:43.796Z,100.00
2022-08-27T03:14:10.397Z,100.00
2022-08-27T03:16:38.111Z,100.00
2022-08-27T03:19:07.311Z,100.00
2022-08-27T03:21:35.488Z,100.00
2022-08-27T03:24:09.440Z,100.00
2022-08-27T03:26:41.281Z,100.00
2022-08-27T03:29:08.032Z,100.00
2022-08-27T03:31:34.899Z,100.00
2022-08-27T03:34:06.766Z,100.00
2022-08-27T03:36:34.000Z,100.00
2022-08-27T03:39:00.681Z,100.00
2022-08-27T03:41:45.462Z,100.00
2022-08-27T03:44:21.449Z,100.00
2022-08-27T03:46:48.825Z,100.00
2022-08-27T03:49:15.558Z,100.00
2022-08-27T03:51:47.439Z,100.00
2022-08-27T03:54:14.087Z,100.00
2022-08-27T03:56:41.772Z,100.00
2022-08-27T03:59:08.794Z,100.00
2022-08-27T04:01:36.050Z,100.00
2022-08-27T04:04:03.111Z,100.00
2022-08-27T04:06:29.744Z,100.00
2022-08-27T04:08:56.526Z,100.00
2022-08-27T04:11:23.472Z,100.00
2022-08-27T04:13:50.238Z,100.00
2022-08-27T04:16:17.021Z,100.00
2022-08-27T04:18:43.656Z,100.00
2022-08-27T04:21:12.931Z,100.00
2022-08-27T04:23:41.144Z,100.00
2022-08-27T04:26:09.760Z,100.00
2022-08-27T04:28:38.626Z,100.00
2022-08-27T04:31:05.584Z,100.00
2022-08-27T04:33:32.569Z,100.00
2022-08-27T04:36:03.667Z,100.00
2022-08-27T04:38:30.280Z,100.00
2022-08-27T04:41:17.437Z,100.00
2022-08-27T04:43:44.001Z,100.00
2022-08-27T04:46:10.649Z,100.00
2022-08-27T04:48:38.527Z,100.00
2022-08-27T04:51:05.273Z,100.00
2022-08-27T04:53:33.436Z,100.00
2022-08-27T04:56:00.046Z,100.00
2022-08-27T04:58:26.662Z,100.00
2022-08-27T05:00:56.010Z,100.00
2022-08-27T05:03:24.380Z,100.00
2022-08-27T05:05:51.828Z,100.00
2022-08-27T05:08:18.554Z,100.00
2022-08-27T05:10:50.431Z,100.00
2022-08-27T05:13:19.122Z,100.00
2022-08-27T05:15:46.751Z,100.00
2022-08-27T05:18:14.386Z,100.00
2022-08-27T05:20:48.613Z,100.00
2022-08-27T05:23:17.719Z,100.00
2022-08-27T05:25:46.304Z,100.00
2022-08-27T05:28:14.737Z,100.00
2022-08-27T05:30:44.797Z,100.00
2022-08-27T05:33:19.511Z,100.00
2022-08-27T05:35:48.621Z,100.00
2022-08-27T05:38:16.574Z,100.00
2022-08-27T05:40:43.979Z,100.00
2022-08-27T05:43:15.415Z,100.00
2022-08-27T05:45:44.190Z,100.00
2022-08-27T05:48:13.565Z,100.00
2022-08-27T05:50:42.007Z,100.00
2022-08-27T05:53:09.928Z,100.00
2022-08-27T05:55:45.148Z,100.00
2022-08-27T05:58:33.532Z,100.00
2022-08-27T06:01:10.252Z,100.00
2022-08-27T06:03:38.407Z,100.00
2022-08-27T06:06:11.145Z,100.00
2022-08-27T06:08:38.918Z,100.00
2022-08-27T06:11:07.239Z,100.00
2022-08-27T06:13:35.353Z,100.00
2022-08-27T06:16:06.790Z,100.00
2022-08-27T06:18:35.307Z,100.00
2022-08-27T06:21:02.178Z,100.00
2022-08-27T06:23:29.686Z,100.00
2022-08-27T06:25:57.535Z,100.00
2022-08-27T06:28:29.702Z,100.00
2022-08-27T06:31:04.669Z,100.00
2022-08-27T06:33:31.551Z,100.00
2022-08-27T06:36:02.068Z,100.00
2022-08-27T06:38:29.240Z,100.00
2022-08-27T06:40:56.596Z,100.00
2022-08-27T06:43:25.190Z,100.00
2022-08-27T06:45:53.499Z,100.00
2022-08-27T06:48:20.244Z,100.00
2022-08-27T06:50:47.391Z,98.69
2022-08-27T06:53:14.534Z,99.26
2022-08-27T06:55:47.560Z,95.23
2022-08-27T06:58:15.603Z,92.89
2022-08-27T07:00:46.088Z,88.52
2022-08-27T07:03:15.461Z,88.52
2022-08-27T07:05:42.069Z,90.75
2022-08-27T07:08:10.303Z,90.82
2022-08-27T07:10:37.997Z,88.56
2022-08-27T07:13:05.151Z,82.80
2022-08-27T07:15:32.982Z,85.73
2022-08-27T07:18:01.939Z,82.08
2022-08-27T07:20:32.222Z,83.04
2022-08-27T07:23:00.939Z,77.22
2022-08-27T07:25:27.699Z,84.89
2022-08-27T07:27:54.295Z,82.71
2022-08-27T07:30:21.069Z,84.82
2022-08-27T07:32:48.763Z,85.17
2022-08-27T07:35:15.350Z,85.91
2022-08-27T07:37:42.609Z,84.96
2022-08-27T07:40:13.031Z,83.58
2022-08-27T07:43:00.647Z,85.27
2022-08-27T07:45:29.730Z,82.28
2022-08-27T07:47:56.423Z,83.30
2022-08-27T07:50:23.679Z,78.87
2022-08-27T07:52:51.441Z,76.24
2022-08-27T07:55:18.847Z,78.15
2022-08-27T07:57:45.512Z,76.07
2022-08-27T08:00:13.189Z,72.74
2022-08-27T08:02:42.197Z,74.44
2022-08-27T08:05:10.134Z,73.21
2022-08-27T08:07:38.561Z,71.04
2022-08-27T08:10:07.889Z,70.72
2022-08-27T08:12:39.468Z,70.58
2022-08-27T08:15:08.840Z,71.19
2022-08-27T08:17:35.954Z,71.12
2022-08-27T08:20:31.154Z,72.18
2022-08-27T08:22:51.573Z,73.45
2022-08-27T08:25:18.318Z,71.10
2022-08-27T08:27:45.209Z,66.68
2022-08-27T08:30:12.239Z,65.55
2022-08-27T08:32:39.296Z,61.18
2022-08-27T08:35:08.077Z,60.79
2022-08-27T08:37:35.162Z,61.71
2022-08-27T08:40:02.668Z,63.02
2022-08-27T08:42:51.376Z,63.83
2022-08-27T08:45:22.828Z,65.97
2022-08-27T08:48:04.421Z,68.21
2022-08-27T08:50:49.892Z,69.67
2022-08-27T08:53:24.273Z,70.72
2022-08-27T08:55:59.173Z,70.00
2022-08-27T08:58:47.636Z,66.51
2022-08-27T09:01:18.629Z,64.81
2022-08-27T09:03:54.771Z,63.19
2022-08-27T09:06:32.300Z,65.49
2022-08-27T09:09:08.401Z,64.74
2022-08-27T09:11:46.631Z,65.52
2022-08-27T09:14:26.878Z,67.05
2022-08-27T09:16:56.371Z,67.85
2022-08-27T09:19:24.819Z,68.57
2022-08-27T09:22:01.743Z,70.55
2022-08-27T09:24:36.088Z,70.55
2022-08-27T09:27:02.811Z,71.25
2022-08-27T09:29:29.971Z,71.80
2022-08-27T09:32:00.246Z,71.78
2022-08-27T09:34:35.198Z,70.65
2022-08-27T09:37:15.345Z,70.74
2022-08-27T09:40:22.953Z,71.34
2022-08-27T09:43:22.749Z,70.87
2022-08-27T09:45:55.439Z,70.66
2022-08-27T09:48:26.716Z,70.64
2022-08-27T09:51:27.476Z,70.90
2022-08-27T09:53:56.163Z,69.38
2022-08-27T09:56:33.331Z,70.29
2022-08-27T09:59:22.785Z,69.78
2022-08-27T10:01:51.589Z,71.55
2022-08-27T10:04:38.084Z,72.37
2022-08-27T10:07:42.028Z,72.35
2022-08-27T10:10:43.240Z,70.84
2022-08-27T10:13:21.824Z,70.08
2022-08-27T10:16:06.521Z,69.83
2022-08-27T10:18:59.016Z,68.87
2022-08-27T10:21:49.937Z,67.23
2022-08-27T10:25:05.780Z,66.72
2022-08-27T10:28:01.474Z,67.43
2022-08-27T10:30:52.641Z,64.24
2022-08-27T10:33:23.387Z,63.90
2022-08-27T10:36:04.319Z,65.34
2022-08-27T10:38:49.805Z,61.87
2022-08-27T10:41:25.290Z,61.70
2022-08-27T10:44:39.824Z,61.66
2022-08-27T10:47:09.015Z,59.44
2022-08-27T10:50:00.954Z,60.75
2022-08-27T10:52:46.065Z,59.45
2022-08-27T10:55:23.981Z,58.90
2022-08-27T10:58:35.666Z,59.20
2022-08-27T11:01:05.255Z,60.93
2022-08-27T11:03:33.261Z,60.52
2022-08-27T11:06:07.346Z,59.16
2022-08-27T11:08:49.952Z,61.11
2022-08-27T11:14:40.691Z,59.34
2022-08-27T11:17:20.597Z,60.12
2022-08-27T11:20:07.017Z,59.71
2022-08-27T11:22:42.434Z,58.64
2022-08-27T11:25:13.743Z,55.41
2022-08-27T11:27:41.374Z,56.58
2022-08-27T11:30:11.372Z,55.00
2022-08-27T11:32:46.398Z,52.28
2022-08-27T11:35:23.130Z,51.19
2022-08-27T11:38:17.497Z,48.89
2022-08-27T11:41:09.819Z,48.27
2022-08-27T11:43:37.860Z,49.48
2022-08-27T11:46:08.247Z,49.75
2022-08-27T11:48:40.856Z,51.32
2022-08-27T11:51:15.921Z,52.88
2022-08-27T11:54:01.923Z,49.91
2022-08-27T11:56:32.913Z,52.59
2022-08-27T11:59:10.480Z,53.82
2022-08-27T12:01:38.429Z,53.06
2022-08-27T12:04:21.747Z,55.21
2022-08-27T12:07:04.221Z,54.91
2022-08-27T12:09:53.700Z,54.78
2022-08-27T12:12:54.364Z,54.53
2022-08-27T12:15:50.599Z,54.37
2022-08-27T12:18:54.183Z,55.61
2022-08-27T12:21:23.806Z,53.17
2022-08-27T12:23:51.111Z,55.55
2022-08-27T12:26:26.502Z,53.51
2022-08-27T12:29:18.465Z,52.84
2022-08-27T12:31:48.782Z,54.05
2022-08-27T12:34:23.197Z,51.40
2022-08-27T12:36:52.621Z,53.49
2022-08-27T12:39:26.927Z,51.28
2022-08-27T12:41:55.854Z,51.62
2022-08-27T12:44:33.540Z,50.80
2022-08-27T12:47:05.550Z,48.12
2022-08-27T12:49:57.755Z,49.55
2022-08-27T12:52:58.909Z,49.27
2022-08-27T12:55:40.004Z,47.72
2022-08-27T12:58:34.813Z,48.67
2022-08-27T13:01:36.107Z,48.22
2022-08-27T13:04:18.818Z,46.19
2022-08-27T13:06:58.360Z,45.98
2022-08-27T13:09:37.919Z,47.70
2022-08-27T13:12:14.746Z,44.68
2022-08-27T13:14:41.805Z,44.47
2022-08-27T13:17:11.609Z,44.20
2022-08-27T13:19:59.371Z,47.56
2022-08-27T13:22:38.858Z,46.63
2022-08-27T13:25:18.963Z,48.15
2022-08-27T13:27:59.520Z,49.37
2022-08-27T13:30:35.710Z,52.00
2022-08-27T13:33:05.697Z,46.85
2022-08-27T13:35:32.868Z,46.15
2022-08-27T13:38:01.311Z,45.69
2022-08-27T13:40:34.670Z,42.44
2022-08-27T13:43:09.302Z,41.50
2022-08-27T13:45:38.751Z,38.83
2022-08-27T13:48:06.566Z,40.90
2022-08-27T13:50:36.186Z,40.79
2022-08-27T13:53:27.910Z,39.04
2022-08-27T13:55:56.618Z,40.36
2022-08-27T13:58:27.903Z,41.60
2022-08-27T14:00:56.068Z,43.37
2022-08-27T14:03:25.855Z,44.26
2022-08-27T14:05:53.325Z,44.32
2022-08-27T14:08:20.930Z,45.46
2022-08-27T14:11:02.078Z,45.49
2022-08-27T14:13:31.538Z,45.52
2022-08-27T14:16:00.207Z,45.28
2022-08-27T14:18:57.386Z,47.67
2022-08-27T14:21:19.968Z,48.76
2022-08-27T14:23:46.640Z,50.45
2022-08-27T14:26:13.986Z,52.36
2022-08-27T14:28:42.869Z,51.85
2022-08-27T14:31:09.793Z,52.07
2022-08-27T14:33:36.448Z,53.15
2022-08-27T14:36:03.630Z,53.62
2022-08-27T14:38:32.082Z,53.27
2022-08-27T14:40:58.833Z,53.97
2022-08-27T14:43:25.809Z,53.71
2022-08-27T14:45:54.024Z,54.96
2022-08-27T14:48:28.653Z,54.83
2022-08-27T14:50:56.832Z,54.49
2022-08-27T14:53:23.674Z,56.59
2022-08-27T14:55:52.161Z,55.39
2022-08-27T14:58:19.735Z,55.45
2022-08-27T15:00:46.561Z,55.18
2022-08-27T15:03:13.273Z,53.99
2022-08-27T15:05:40.041Z,54.35
2022-08-27T15:08:07.702Z,54.75
2022-08-27T15:10:39.811Z,55.62
2022-08-27T15:13:06.447Z,55.09
2022-08-27T15:15:33.113Z,54.72
2022-08-27T15:17:59.737Z,55.30
2022-08-27T15:20:26.326Z,55.57
2022-08-27T15:22:53.223Z,56.55
2022-08-27T15:25:21.015Z,56.11
2022-08-27T15:27:47.646Z,55.08
2022-08-27T15:30:15.973Z,56.32
2022-08-27T15:32:46.058Z,57.26
2022-08-27T15:35:15.657Z,57.56
2022-08-27T15:37:43.281Z,58.62
2022-08-27T15:40:11.808Z,59.07
2022-08-27T15:42:38.495Z,59.00
2022-08-27T15:45:06.906Z,59.44
2022-08-27T15:47:34.206Z,59.28
2022-08-27T15:50:00.814Z,59.94
2022-08-27T15:52:40.331Z,60.75
2022-08-27T15:55:16.611Z,61.70
2022-08-27T15:57:43.189Z,61.93
2022-08-27T16:00:10.789Z,62.41
2022-08-27T16:02:37.378Z,61.33
2022-08-27T16:05:04.156Z,62.14
2022-08-27T16:07:30.720Z,62.62
2022-08-27T16:09:57.389Z,62.00
2022-08-27T16:12:27.292Z,63.45
2022-08-27T16:14:55.201Z,63.31
2022-08-27T16:17:22.258Z,62.88
2022-08-27T16:19:49.462Z,62.89
2022-08-27T16:22:16.412Z,63.52
2022-08-27T16:24:43.160Z,64.44
2022-08-27T16:27:09.878Z,64.47
2022-08-27T16:29:36.714Z,64.74
2022-08-27T16:32:04.573Z,65.06
2022-08-27T16:34:32.671Z,65.29
2022-08-27T16:37:00.153Z,65.19
2022-08-27T16:39:31.789Z,66.88
2022-08-27T16:42:00.565Z,67.58
2022-08-27T16:44:27.277Z,68.16
2022-08-27T16:46:53.823Z,68.72
2022-08-27T16:49:38.663Z,68.68
2022-08-27T16:52:06.823Z,68.58
2022-08-27T16:54:34.054Z,69.04
2022-08-27T16:57:01.097Z,69.32
2022-08-27T16:59:27.710Z,69.50
2022-08-27T17:01:55.344Z,69.76
2022-08-27T17:04:29.701Z,69.89
2022-08-27T17:06:58.332Z,69.95
2022-08-27T17:09:25.158Z,68.63
2022-08-27T17:11:57.130Z,69.46
2022-08-27T17:14:24.159Z,68.65
2022-08-27T17:16:51.117Z,68.12
2022-08-27T17:19:18.849Z,68.97
2022-08-27T17:21:45.780Z,69.43
2022-08-27T17:24:12.984Z,69.87
2022-08-27T17:26:40.204Z,69.59
2022-08-27T17:29:06.828Z,69.56
2022-08-27T17:31:37.266Z,70.26
2022-08-27T17:34:05.758Z,70.65
2022-08-27T17:36:33.146Z,70.39
2022-08-27T17:39:00.505Z,70.06
2022-08-27T17:41:34.469Z,70.29
2022-08-27T17:44:12.079Z,70.70
2022-08-27T17:46:38.633Z,69.72
2022-08-27T17:49:05.272Z,69.94
2022-08-27T17:51:31.988Z,69.93
2022-08-27T17:54:01.138Z,70.79
2022-08-27T17:56:29.576Z,71.69
2022-08-27T17:58:56.534Z,70.93
2022-08-27T18:01:30.363Z,70.98
2022-08-27T18:03:58.346Z,71.59
2022-08-27T18:06:26.688Z,71.58
2022-08-27T18:08:53.488Z,71.39
2022-08-27T18:11:20.528Z,71.70
2022-08-27T18:13:54.004Z,71.66
2022-08-27T18:16:21.343Z,72.26
2022-08-27T18:18:48.299Z,72.79
2022-08-27T18:21:24.928Z,72.58
2022-08-27T18:23:51.959Z,72.47
2022-08-27T18:26:21.558Z,73.31
2022-08-27T18:28:49.238Z,73.49
2022-08-27T18:31:18.429Z,74.05
2022-08-27T18:33:45.125Z,74.93
2022-08-27T18:36:12.000Z,75.62
2022-08-27T18:38:38.605Z,76.05
2022-08-27T18:41:06.494Z,75.98
2022-08-27T18:43:35.354Z,75.65
2022-08-27T18:46:03.793Z,75.63
2022-08-27T18:48:30.472Z,76.09
2022-08-27T18:50:59.466Z,75.86
2022-08-27T18:53:28.899Z,75.71
2022-08-27T18:55:56.029Z,75.59
2022-08-27T18:58:22.801Z,75.53
2022-08-27T19:00:53.631Z,75.03
2022-08-27T19:03:26.905Z,75.58
2022-08-27T19:05:54.959Z,76.19
2022-08-27T19:08:23.052Z,76.34
2022-08-27T19:10:49.617Z,76.19
2022-08-27T19:13:16.274Z,76.64
2022-08-27T19:15:47.150Z,76.66
2022-08-27T19:18:13.707Z,76.78
2022-08-27T19:20:40.382Z,77.11
2022-08-27T19:23:06.920Z,76.98
2022-08-27T19:25:33.584Z,77.90
2022-08-27T19:28:00.406Z,77.98
2022-08-27T19:30:27.013Z,78.21
2022-08-27T19:32:54.708Z,78.18
2022-08-27T19:35:23.741Z,78.43
2022-08-27T19:37:53.490Z,78.17
2022-08-27T19:40:22.202Z,78.22
2022-08-27T19:42:49.572Z,78.13
2022-08-27T19:45:16.332Z,78.36
2022-08-27T19:47:50.768Z,78.38
2022-08-27T19:50:17.910Z,78.19
2022-08-27T19:52:44.772Z,78.47
2022-08-27T19:55:14.134Z,77.93
2022-08-27T19:57:42.949Z,78.70
2022-08-27T20:00:11.839Z,78.77
2022-08-27T20:02:38.475Z,79.63
2022-08-27T20:05:22.030Z,79.71
2022-08-27T20:07:51.099Z,79.99
2022-08-27T20:10:19.594Z,80.25
2022-08-27T20:12:48.432Z,79.80
2022-08-27T20:15:15.687Z,80.25
2022-08-27T20:17:42.782Z,79.51
2022-08-27T20:20:10.757Z,79.75
2022-08-27T20:22:39.700Z,78.38
2022-08-27T20:25:06.917Z,77.97
2022-08-27T20:27:33.648Z,76.93
2022-08-27T20:30:00.267Z,76.98
2022-08-27T20:32:29.961Z,77.65
2022-08-27T20:34:57.171Z,78.02
2022-08-27T20:37:24.398Z,78.18
2022-08-27T20:39:52.533Z,77.80
2022-08-27T20:42:20.038Z,78.02
2022-08-27T20:44:47.491Z,77.79
2022-08-27T20:47:15.466Z,78.12
2022-08-27T20:49:44.575Z,77.78
2022-08-27T20:52:12.929Z,77.99
2022-08-27T20:54:39.990Z,78.17
2022-08-27T20:57:08.175Z,78.41
2022-08-27T20:59:53.109Z,79.21
2022-08-27T21:02:25.711Z,79.43
2022-08-27T21:04:53.096Z,79.44
2022-08-27T21:07:21.412Z,80.13
2022-08-27T21:09:57.260Z,81.16
2022-08-27T21:12:28.096Z,81.98
2022-08-27T21:14:56.222Z,82.68
2022-08-27T21:17:26.158Z,82.38
2022-08-27T21:19:52.848Z,82.74
2022-08-27T21:22:20.026Z,83.53
2022-08-27T21:24:47.566Z,83.54
2022-08-27T21:27:15.096Z,83.69
2022-08-27T21:29:41.931Z,84.86
2022-08-27T21:32:09.667Z,85.15
2022-08-27T21:34:36.748Z,85.23
2022-08-27T21:37:04.427Z,85.56
2022-08-27T21:39:32.822Z,85.24
2022-08-27T21:42:00.947Z,85.53
2022-08-27T21:44:28.449Z,86.47
2022-08-27T21:46:55.432Z,87.25
2022-08-27T21:49:22.127Z,87.11
2022-08-27T21:51:48.929Z,87.61
2022-08-27T21:54:15.544Z,88.63
2022-08-27T21:56:42.997Z,88.83
2022-08-27T21:59:09.675Z,90.26
2022-08-27T22:01:36.807Z,90.35
2022-08-27T22:04:03.772Z,90.96
2022-08-27T22:06:30.903Z,91.64
2022-08-27T22:08:57.523Z,92.21
2022-08-27T22:11:25.748Z,92.56
2022-08-27T22:13:53.133Z,92.95
2022-08-27T22:16:19.883Z,93.67
2022-08-27T22:18:46.531Z,94.14
2022-08-27T22:21:13.537Z,94.19
2022-08-27T22:23:42.321Z,94.46
2022-08-27T22:26:12.084Z,94.96
2022-08-27T22:28:38.740Z,95.23
2022-08-27T22:31:07.374Z,95.98
2022-08-27T22:33:34.241Z,96.07
2022-08-27T22:36:00.876Z,96.21
2022-08-27T22:38:27.483Z,96.53
2022-08-27T22:40:54.075Z,96.65
2022-08-27T22:43:20.694Z,96.72
2022-08-27T22:45:47.313Z,96.87
2022-08-27T22:48:14.326Z,97.68
2022-08-27T22:50:41.167Z,98.12
2022-08-27T22:53:08.264Z,98.32
2022-08-27T22:55:35.606Z,98.91
2022-08-27T22:58:02.317Z,99.02
2022-08-27T23:00:32.790Z,99.47
2022-08-27T23:03:01.138Z,100.00
2022-08-27T23:05:32.396Z,100.00
2022-08-27T23:08:11.335Z,100.00
2022-08-27T23:10:38.694Z,100.00
2022-08-27T23:13:05.547Z,100.00
2022-08-27T23:15:32.504Z,100.00
2022-08-27T23:18:00.603Z,100.00
2022-08-27T23:20:27.785Z,100.00
2022-08-27T23:22:54.545Z,100.00
2022-08-27T23:25:43.236Z,100.00
2022-08-27T23:28:14.382Z,100.00
2022-08-27T23:30:42.931Z,100.00
2022-08-27T23:33:09.696Z,100.00
2022-08-27T23:35:36.844Z,100.00
2022-08-27T23:38:03.767Z,100.00
2022-08-27T23:40:30.589Z,100.00
2022-08-27T23:42:57.303Z,100.00
2022-08-27T23:45:26.257Z,100.00
2022-08-27T23:47:53.425Z,100.00
2022-08-27T23:50:23.094Z,100.00
2022-08-27T23:52:59.100Z,100.00
2022-08-27T23:55:25.714Z,100.00
2022-08-27T23:57:57.407Z,100.00
